Time;durP1;ratioP1;P1;durP2;ratioP2;P2;SDS_P1;SDS_P2;PMS_P1;PMS_P2;Temp;Humidity;BMP_temperature;BMP_pressure;BME280_temperature;BME280_humidity;BME280_pressure;Samples;Min_cycle;Max_cycle;Signal;HPM_P1;HPM_P2
2024/04/22 00:02:17;;;;;;;0.22;0.22;;;6.00;80.10;;;;;;4804405;29;20042;-76
2024/04/22 00:04:43;;;;;;;0.30;0.30;;;5.90;80.00;;;;;;4803230;29;20467;-75
2024/04/22 00:07:11;;;;;;;0.30;0.30;;;5.90;80.00;;;;;;4803930;29;20446;-75
2024/04/22 00:09:37;;;;;;;0.30;0.30;;;5.90;80.10;;;;;;4808554;29;20050;-75
2024/04/22 00:12:03;;;;;;;0.40;0.40;;;5.80;80.20;;;;;;4809399;29;20039;-76
2024/04/22 00:14:36;;;;;;;0.45;0.20;;;5.80;80.20;;;;;;4775165;29;20055;-76
2024/04/22 00:17:05;;;;;;;0.30;0.30;;;5.80;80.20;;;;;;4794503;29;20051;-75
2024/04/22 00:19:30;;;;;;;0.63;0.35;;;5.80;80.30;;;;;;4806068;29;20039;-75
2024/04/22 00:21:56;;;;;;;0.30;0.30;;;5.70;80.40;;;;;;4792175;29;20110;-76
2024/04/22 00:24:21;;;;;;;0.40;0.35;;;5.60;80.40;;;;;;4822080;29;20042;-76
2024/04/22 00:26:47;;;;;;;0.60;0.47;;;5.70;80.50;;;;;;4822652;29;20039;-76
2024/04/22 00:29:13;;;;;;;0.55;0.38;;;5.60;80.60;;;;;;4822676;29;20072;-76
2024/04/22 00:31:38;;;;;;;0.20;0.20;;;5.60;80.60;;;;;;4822996;29;20043;-76
2024/04/22 00:34:04;;;;;;;0.40;0.40;;;5.60;80.70;;;;;;4822369;29;20046;-75
2024/04/22 00:36:30;;;;;;;0.25;0.25;;;5.60;80.80;;;;;;4822189;29;20063;-76
2024/04/22 00:38:55;;;;;;;0.60;0.40;;;5.60;80.80;;;;;;4822315;29;20046;-76
2024/04/22 00:41:25;;;;;;;0.20;0.20;;;5.50;80.80;;;;;;4822321;29;20031;-76
2024/04/22 00:43:51;;;;;;;0.20;0.20;;;5.50;80.90;;;;;;4822520;29;20078;-77
2024/04/22 00:46:17;;;;;;;0.20;0.20;;;5.50;80.90;;;;;;4821435;29;20054;-75
2024/04/22 00:48:43;;;;;;;0.28;0.28;;;5.50;81.00;;;;;;4822378;29;20050;-76
2024/04/22 00:51:10;;;;;;;0.30;0.30;;;5.50;81.10;;;;;;4806145;29;20077;-76
2024/04/22 00:53:36;;;;;;;0.35;0.30;;;5.40;81.10;;;;;;4821858;29;20084;-76
2024/04/22 00:56:02;;;;;;;0.50;0.30;;;5.40;81.20;;;;;;4806913;29;20084;-76
2024/04/22 00:58:29;;;;;;;0.28;0.28;;;5.40;81.20;;;;;;4822422;29;20059;-76
2024/04/22 01:00:56;;;;;;;0.20;0.20;;;5.40;81.20;;;;;;4821473;29;20069;-76
2024/04/22 01:03:22;;;;;;;0.50;0.40;;;5.40;81.40;;;;;;4821298;29;20042;-76
2024/04/22 01:05:48;;;;;;;0.38;0.38;;;5.30;81.40;;;;;;4821958;29;20031;-76
2024/04/22 01:08:15;;;;;;;0.43;0.40;;;5.30;81.50;;;;;;4822934;29;20066;-76
2024/04/22 01:10:42;;;;;;;0.30;0.30;;;5.20;81.50;;;;;;4822595;29;20559;-76
2024/04/22 01:13:07;;;;;;;0.25;0.20;;;5.20;81.50;;;;;;4824641;29;20059;-76
2024/04/22 01:15:34;;;;;;;0.85;0.40;;;5.20;81.60;;;;;;4823923;29;20053;-76
2024/04/22 01:17:59;;;;;;;0.30;0.30;;;5.10;81.70;;;;;;4824831;29;20414;-75
2024/04/22 01:20:25;;;;;;;0.30;0.30;;;5.10;81.80;;;;;;4821598;29;20043;-76
2024/04/22 01:22:51;;;;;;;0.30;0.30;;;5.20;81.80;;;;;;4826411;29;20042;-76
2024/04/22 01:25:17;;;;;;;0.40;0.40;;;5.10;81.80;;;;;;4825438;29;20038;-76
2024/04/22 01:27:43;;;;;;;0.20;0.20;;;5.00;81.90;;;;;;4826104;29;20031;-77
2024/04/22 01:30:10;;;;;;;0.20;0.20;;;5.00;81.90;;;;;;4824859;29;20070;-76
2024/04/22 01:32:39;;;;;;;0.88;0.40;;;5.00;81.90;;;;;;4826097;29;20039;-77
2024/04/22 01:35:05;;;;;;;0.28;0.25;;;5.00;82.00;;;;;;4809081;29;20031;-77
2024/04/22 01:37:30;;;;;;;0.63;0.30;;;4.90;82.00;;;;;;4824165;29;20104;-76
2024/04/22 01:39:56;;;;;;;0.20;0.20;;;4.90;82.10;;;;;;4824092;29;20039;-75
2024/04/22 01:42:23;;;;;;;0.32;0.30;;;4.90;82.20;;;;;;4824447;29;20177;-76
2024/04/22 01:44:49;;;;;;;0.30;0.30;;;4.90;82.10;;;;;;4824178;29;20039;-76
2024/04/22 01:47:15;;;;;;;0.47;0.30;;;4.80;82.10;;;;;;4823161;29;20157;-76
2024/04/22 01:49:41;;;;;;;0.50;0.30;;;4.90;82.30;;;;;;4822352;29;20038;-77
2024/04/22 01:52:07;;;;;;;0.20;0.20;;;4.90;82.30;;;;;;4823881;29;20043;-76
2024/04/22 01:54:33;;;;;;;0.75;0.40;;;4.80;82.20;;;;;;4822793;29;20058;-76
2024/04/22 01:56:59;;;;;;;0.52;0.30;;;4.80;82.30;;;;;;4807788;29;20035;-77
2024/04/22 01:59:26;;;;;;;0.47;0.35;;;4.80;82.20;;;;;;4823418;29;20031;-76
2024/04/22 02:01:52;;;;;;;0.30;0.30;;;4.80;82.20;;;;;;4807371;29;20094;-76
2024/04/22 02:04:17;;;;;;;0.55;0.30;;;4.80;82.20;;;;;;4823108;29;20072;-76
2024/04/22 02:06:43;;;;;;;0.35;0.35;;;4.80;82.30;;;;;;4823281;29;20110;-76
2024/04/22 02:09:09;;;;;;;0.40;0.30;;;4.80;82.30;;;;;;4824085;29;20046;-75
2024/04/22 02:11:34;;;;;;;0.40;0.40;;;4.70;82.30;;;;;;4823521;29;20506;-76
2024/04/22 02:14:00;;;;;;;0.20;0.20;;;4.70;82.30;;;;;;4823593;29;20145;-76
2024/04/22 02:16:26;;;;;;;0.50;0.30;;;4.80;82.40;;;;;;4808727;29;20049;-76
2024/04/22 02:18:54;;;;;;;0.25;0.25;;;4.70;82.40;;;;;;4823771;29;20035;-76
2024/04/22 02:21:21;;;;;;;0.52;0.40;;;4.60;82.40;;;;;;4823281;29;20035;-76
2024/04/22 02:23:47;;;;;;;0.32;0.25;;;4.60;82.60;;;;;;4825163;29;20110;-76
2024/04/22 02:26:13;;;;;;;0.30;0.30;;;4.60;82.60;;;;;;4824928;29;20039;-76
2024/04/22 02:28:39;;;;;;;0.20;0.20;;;4.50;82.60;;;;;;4822956;29;20403;-76
2024/04/22 02:31:05;;;;;;;0.45;0.40;;;4.50;82.70;;;;;;4823278;29;20042;-77
2024/04/22 02:33:31;;;;;;;0.20;0.20;;;4.50;82.80;;;;;;4822707;29;20057;-77
2024/04/22 02:35:57;;;;;;;0.30;0.30;;;4.40;82.80;;;;;;4825093;29;20039;-76
2024/04/22 02:38:23;;;;;;;0.20;0.20;;;4.40;82.90;;;;;;4808858;29;20046;-76
2024/04/22 02:40:49;;;;;;;0.20;0.20;;;4.40;83.00;;;;;;4808367;29;20046;-76
2024/04/22 02:43:14;;;;;;;0.63;0.40;;;4.40;83.00;;;;;;4822496;29;20060;-76
2024/04/22 02:45:40;;;;;;;0.38;0.38;;;4.30;83.00;;;;;;4808081;29;20035;-76
2024/04/22 02:48:06;;;;;;;0.32;0.25;;;4.30;83.20;;;;;;4823856;29;20648;-76
2024/04/22 02:50:33;;;;;;;0.20;0.20;;;4.20;83.10;;;;;;4822862;29;20047;-77
2024/04/22 02:52:58;;;;;;;0.60;0.35;;;4.20;83.10;;;;;;4821882;29;20047;-76
2024/04/22 02:55:29;;;;;;;0.30;0.30;;;4.20;83.20;;;;;;4823652;29;20069;-76
2024/04/22 02:57:57;;;;;;;0.30;0.30;;;4.10;83.20;;;;;;4816238;29;20048;-76
2024/04/22 03:00:23;;;;;;;0.20;0.20;;;4.10;83.30;;;;;;4805025;29;20108;-77
2024/04/22 03:02:48;;;;;;;0.43;0.43;;;4.10;83.40;;;;;;4804786;29;20034;-76
2024/04/22 03:05:14;;;;;;;0.25;0.25;;;4.10;83.40;;;;;;4804679;29;20070;-77
2024/04/22 03:07:40;;;;;;;0.40;0.32;;;4.00;83.40;;;;;;4804593;29;20432;-77
2024/04/22 03:10:06;;;;;;;0.45;0.30;;;4.00;83.40;;;;;;4803779;29;20087;-77
2024/04/22 03:12:32;;;;;;;0.28;0.25;;;4.10;83.50;;;;;;4803096;29;20046;-76
2024/04/22 03:14:59;;;;;;;0.38;0.35;;;4.00;83.40;;;;;;4804944;29;20122;-76
2024/04/22 03:17:24;;;;;;;0.40;0.40;;;4.00;83.40;;;;;;4804339;29;20051;-76
2024/04/22 03:19:52;;;;;;;0.60;0.40;;;4.00;83.40;;;;;;4802949;29;20049;-76
2024/04/22 03:22:18;;;;;;;0.40;0.40;;;4.00;83.50;;;;;;4773396;29;20421;-76
2024/04/22 03:24:47;;;;;;;0.28;0.28;;;4.00;83.50;;;;;;4804414;29;20067;-76
2024/04/22 03:27:13;;;;;;;0.60;0.50;;;4.00;83.50;;;;;;4803738;29;20041;-76
2024/04/22 03:29:39;;;;;;;0.30;0.30;;;4.00;83.50;;;;;;4788282;29;20051;-76
2024/04/22 03:32:06;;;;;;;1.38;0.30;;;3.90;83.40;;;;;;4803246;29;20542;-76
2024/04/22 03:34:32;;;;;;;0.30;0.30;;;4.00;83.50;;;;;;4803879;29;20047;-76
2024/04/22 03:36:57;;;;;;;0.32;0.30;;;3.90;83.60;;;;;;4804191;29;20041;-77
2024/04/22 03:39:23;;;;;;;0.17;0.17;;;4.00;83.60;;;;;;4804903;29;20043;-77
2024/04/22 03:41:49;;;;;;;0.40;0.40;;;3.80;83.50;;;;;;4804693;29;20077;-76
2024/04/22 03:44:15;;;;;;;0.10;0.10;;;3.80;83.60;;;;;;4804575;29;20035;-77
2024/04/22 03:51:58;;;;;;;0.65;0.50;;;3.70;83.80;;;;;;4804356;29;20129;-76
2024/04/22 03:54:23;;;;;;;0.20;0.20;;;3.70;83.90;;;;;;4804093;29;20134;-76
2024/04/22 03:56:49;;;;;;;0.30;0.30;;;3.60;83.80;;;;;;4804032;29;20051;-76
2024/04/22 03:59:15;;;;;;;0.20;0.20;;;3.60;83.90;;;;;;4804543;29;20164;-76
2024/04/22 04:01:40;;;;;;;0.20;0.20;;;3.60;84.00;;;;;;4803076;29;20398;-76
2024/04/22 04:04:06;;;;;;;0.25;0.25;;;3.60;84.10;;;;;;4804807;29;20035;-76
2024/04/22 04:06:32;;;;;;;0.25;0.20;;;3.50;84.00;;;;;;4804387;29;20076;-76
2024/04/22 04:08:57;;;;;;;0.30;0.30;;;3.50;84.10;;;;;;4803208;29;20065;-77
2024/04/22 04:11:27;;;;;;;0.20;0.20;;;3.50;84.00;;;;;;4810026;29;20539;-76
2024/04/22 04:13:53;;;;;;;0.40;0.30;;;3.50;84.00;;;;;;4807504;29;20078;-76
2024/04/22 04:16:19;;;;;;;0.10;0.10;;;3.50;84.00;;;;;;4809610;29;20404;-76
2024/04/22 04:18:46;;;;;;;0.20;0.20;;;3.60;84.00;;;;;;4807520;29;20168;-75
2024/04/22 04:21:11;;;;;;;0.38;0.30;;;3.50;84.00;;;;;;4806683;29;20064;-76
2024/04/22 04:23:39;;;;;;;0.30;0.20;;;3.50;84.10;;;;;;4821049;29;20036;-76
2024/04/22 04:26:04;;;;;;;0.20;0.20;;;3.50;84.10;;;;;;4822423;29;20130;-76
2024/04/22 04:28:30;;;;;;;0.73;0.40;;;3.40;84.10;;;;;;4819829;29;20045;-76
2024/04/22 04:30:57;;;;;;;0.30;0.30;;;3.40;84.10;;;;;;4820434;29;20049;-76
2024/04/22 04:33:22;;;;;;;0.30;0.30;;;3.40;84.10;;;;;;4819142;29;20050;-75
2024/04/22 04:36:01;;;;;;;0.28;0.28;;;3.40;84.10;;;;;;4820469;29;20095;-76
2024/04/22 04:38:27;;;;;;;0.28;0.13;;;3.40;84.10;;;;;;4821140;29;20054;-76
2024/04/22 04:40:53;;;;;;;0.55;0.40;;;3.40;84.10;;;;;;4821129;29;20110;-77
2024/04/22 04:43:19;;;;;;;0.35;0.35;;;3.40;84.10;;;;;;4822393;29;20031;-76
2024/04/22 04:45:45;;;;;;;0.30;0.30;;;3.40;84.00;;;;;;4822829;29;20046;-76
2024/04/22 04:48:11;;;;;;;0.20;0.20;;;3.40;84.00;;;;;;4823909;29;20459;-76
2024/04/22 04:50:36;;;;;;;0.20;0.20;;;3.40;84.10;;;;;;4823959;29;20092;-76
2024/04/22 04:53:02;;;;;;;0.30;0.30;;;3.40;84.10;;;;;;4824203;29;20039;-76
2024/04/22 04:55:29;;;;;;;0.20;0.20;;;3.40;84.00;;;;;;4807975;29;20552;-76
2024/04/22 04:57:54;;;;;;;0.40;0.40;;;3.40;84.00;;;;;;4787825;30;20044;-76
2024/04/22 05:00:20;;;;;;;0.32;0.20;;;3.50;84.00;;;;;;4788076;30;20086;-76
2024/04/22 05:02:45;;;;;;;0.15;0.15;;;3.50;83.90;;;;;;4787941;30;20054;-76
2024/04/22 05:05:12;;;;;;;0.20;0.20;;;3.60;83.80;;;;;;4759002;30;20077;-76
2024/04/22 05:07:38;;;;;;;0.28;0.28;;;3.60;83.80;;;;;;4788136;30;20109;-76
2024/04/22 05:10:03;;;;;;;0.30;0.30;;;3.60;83.70;;;;;;4788798;30;20043;-76
2024/04/22 05:12:29;;;;;;;0.50;0.30;;;3.50;83.70;;;;;;4787851;30;20051;-76
2024/04/22 05:14:57;;;;;;;0.30;0.30;;;3.60;83.80;;;;;;4773492;30;20048;-76
2024/04/22 05:17:22;;;;;;;0.75;0.40;;;3.60;83.70;;;;;;4788388;30;20046;-76
2024/04/22 05:19:50;;;;;;;0.30;0.30;;;3.60;83.70;;;;;;4787663;30;20052;-76
2024/04/22 05:22:17;;;;;;;0.20;0.20;;;3.60;83.80;;;;;;4747334;30;20096;-76
2024/04/22 05:24:42;;;;;;;0.20;0.20;;;3.60;83.80;;;;;;4753870;30;20475;-77
2024/04/22 05:27:08;;;;;;;0.30;0.30;;;3.70;83.80;;;;;;4753982;30;20070;-76
2024/04/22 05:29:34;;;;;;;0.28;0.28;;;3.70;83.80;;;;;;4799108;29;20412;-77
2024/04/22 05:32:00;;;;;;;0.65;0.40;;;3.80;83.80;;;;;;4806619;29;20089;-77
2024/04/22 05:37:05;;;;;;;0.43;0.30;;;3.80;83.60;;;;;;4806627;29;20043;-76
2024/04/22 05:39:31;;;;;;;0.22;0.22;;;3.90;83.60;;;;;;4789460;29;20035;-76
2024/04/22 05:41:57;;;;;;;0.10;0.10;;;3.90;83.50;;;;;;4790510;29;20160;-77
2024/04/22 05:44:23;;;;;;;0.20;0.20;;;4.10;83.50;;;;;;4803339;29;20100;-76
2024/04/22 05:46:48;;;;;;;0.20;0.20;;;4.10;83.40;;;;;;4806368;29;20075;-76
2024/04/22 05:49:14;;;;;;;0.30;0.30;;;4.10;83.30;;;;;;4805138;29;20443;-76
2024/04/22 05:51:40;;;;;;;0.30;0.30;;;4.20;83.20;;;;;;4790414;29;20043;-77
2024/04/22 05:54:09;;;;;;;0.15;0.15;;;4.30;83.10;;;;;;4789933;29;20046;-74
2024/04/22 05:56:36;;;;;;;0.30;0.30;;;4.40;83.10;;;;;;4804337;29;20042;-75
2024/04/22 05:59:02;;;;;;;0.30;0.30;;;4.40;83.10;;;;;;4805304;29;20108;-77
2024/04/22 06:01:29;;;;;;;0.45;0.28;;;4.50;82.90;;;;;;4789616;29;20047;-77
2024/04/22 06:03:55;;;;;;;0.22;0.20;;;4.60;82.90;;;;;;4810132;29;20057;-75
2024/04/22 06:06:21;;;;;;;0.20;0.20;;;4.60;82.80;;;;;;4811026;29;20103;-75
2024/04/22 06:08:47;;;;;;;0.85;0.30;;;4.70;82.70;;;;;;4808366;29;20464;-76
2024/04/22 06:11:14;;;;;;;0.45;0.35;;;4.70;82.50;;;;;;4807532;29;20051;-75
2024/04/22 06:13:39;;;;;;;0.82;0.55;;;4.80;82.50;;;;;;4791773;29;20051;-74
2024/04/22 06:16:06;;;;;;;0.30;0.30;;;4.90;82.40;;;;;;4813896;29;20130;-75
2024/04/22 06:18:31;;;;;;;0.25;0.25;;;5.00;82.40;;;;;;4814345;29;20045;-75
2024/04/22 06:20:57;;;;;;;0.30;0.30;;;5.00;82.40;;;;;;4814981;29;20426;-76
2024/04/22 06:23:23;;;;;;;0.40;0.32;;;5.10;82.30;;;;;;4812846;29;20074;-75
2024/04/22 06:25:48;;;;;;;0.35;0.35;;;5.10;82.20;;;;;;4798266;29;20062;-75
2024/04/22 06:28:14;;;;;;;0.40;0.40;;;5.20;82.10;;;;;;4814613;29;20513;-75
2024/04/22 06:30:40;;;;;;;0.40;0.30;;;5.30;82.20;;;;;;4814312;29;20110;-75
2024/04/22 06:33:05;;;;;;;0.30;0.30;;;5.30;82.10;;;;;;4812108;29;20383;-76
2024/04/22 06:35:31;;;;;;;0.43;0.40;;;5.40;82.10;;;;;;4806556;29;20035;-75
2024/04/22 06:37:57;;;;;;;0.35;0.35;;;5.50;82.00;;;;;;4805472;29;20035;-75
2024/04/22 06:40:23;;;;;;;0.38;0.30;;;5.60;81.90;;;;;;4788824;29;20039;-75
2024/04/22 06:42:48;;;;;;;0.30;0.30;;;5.70;81.80;;;;;;4787768;29;20081;-75
2024/04/22 06:45:14;;;;;;;0.38;0.32;;;5.80;81.70;;;;;;4805141;29;20076;-75
2024/04/22 06:47:40;;;;;;;0.28;0.28;;;5.90;81.70;;;;;;4803359;29;20138;-76
2024/04/22 06:50:06;;;;;;;0.20;0.20;;;5.90;81.50;;;;;;4804750;29;20038;-76
2024/04/22 06:52:32;;;;;;;0.55;0.45;;;6.00;81.50;;;;;;4805235;29;20502;-75
2024/04/22 06:54:58;;;;;;;0.30;0.30;;;6.10;81.40;;;;;;4804883;29;20094;-75
2024/04/22 06:57:24;;;;;;;0.32;0.32;;;6.20;81.30;;;;;;4803106;29;20538;-76
2024/04/22 06:59:50;;;;;;;0.30;0.30;;;6.20;81.20;;;;;;4806570;29;20038;-75
2024/04/22 07:02:15;;;;;;;0.40;0.40;;;6.30;81.10;;;;;;4809375;29;20079;-75
2024/04/22 07:04:56;;;;;;;0.43;0.40;;;6.40;81.00;;;;;;4809934;29;20061;-74
2024/04/22 07:07:28;;;;;;;0.35;0.35;;;6.50;81.10;;;;;;4805102;29;20134;-74
2024/04/22 07:09:56;;;;;;;0.55;0.30;;;6.50;80.90;;;;;;4804153;29;20126;-74
2024/04/22 07:12:22;;;;;;;0.20;0.20;;;6.70;80.80;;;;;;4803847;29;20039;-76
2024/04/22 07:14:48;;;;;;;0.45;0.40;;;6.80;80.80;;;;;;4808041;29;20051;-75
2024/04/22 07:17:14;;;;;;;0.80;0.40;;;6.80;80.70;;;;;;4790381;29;20085;-76
2024/04/22 07:19:40;;;;;;;0.55;0.50;;;6.90;80.60;;;;;;4805873;29;20042;-75
2024/04/22 07:22:06;;;;;;;0.50;0.50;;;7.00;80.50;;;;;;4806842;29;20066;-76
2024/04/22 07:24:32;;;;;;;0.68;0.50;;;7.10;80.40;;;;;;4789114;29;20050;-75
2024/04/22 07:26:58;;;;;;;0.50;0.40;;;7.10;80.30;;;;;;4803648;29;20043;-75
2024/04/22 07:29:24;;;;;;;0.30;0.30;;;7.20;80.30;;;;;;4786727;29;20031;-75
2024/04/22 07:31:50;;;;;;;0.50;0.50;;;7.30;80.30;;;;;;4803633;29;20498;-75
2024/04/22 07:34:16;;;;;;;0.30;0.30;;;7.40;80.30;;;;;;4805968;29;20059;-75
2024/04/22 07:36:46;;;;;;;0.30;0.30;;;7.40;80.10;;;;;;4806228;29;20039;-76
2024/04/22 07:39:14;;;;;;;0.40;0.40;;;7.50;80.10;;;;;;4809590;29;20031;-76
2024/04/22 07:41:40;;;;;;;0.40;0.40;;;7.60;80.00;;;;;;4808619;29;20039;-75
2024/04/22 07:44:06;;;;;;;0.47;0.40;;;7.70;80.00;;;;;;4806000;29;20470;-75
2024/04/22 07:46:33;;;;;;;0.50;0.50;;;7.70;79.90;;;;;;4804691;29;20038;-74
2024/04/22 07:48:59;;;;;;;0.43;0.40;;;7.90;79.80;;;;;;4803351;29;20043;-74
2024/04/22 07:51:24;;;;;;;0.52;0.40;;;7.90;79.60;;;;;;4804724;29;20352;-75
2024/04/22 07:53:50;;;;;;;0.50;0.40;;;8.00;79.50;;;;;;4803963;29;20074;-74
2024/04/22 07:56:18;;;;;;;0.30;0.22;;;8.10;79.50;;;;;;4804564;29;20129;-74
2024/04/22 07:58:44;;;;;;;0.20;0.20;;;8.10;79.40;;;;;;4802959;29;20031;-74
2024/04/22 08:01:12;;;;;;;0.35;0.35;;;8.20;79.30;;;;;;4804580;29;20039;-74
2024/04/22 08:03:38;;;;;;;0.32;0.30;;;8.30;79.20;;;;;;4801408;29;20039;-74
2024/04/22 08:06:07;;;;;;;0.30;0.30;;;8.40;79.00;;;;;;4805225;29;20490;-76
2024/04/22 08:08:38;;;;;;;0.22;0.22;;;8.40;78.90;;;;;;4804343;29;20078;-76
2024/04/22 08:11:06;;;;;;;0.30;0.30;;;8.50;78.90;;;;;;4773742;29;20051;-76
2024/04/22 08:13:32;;;;;;;0.40;0.40;;;8.60;78.80;;;;;;4774741;29;20566;-76
2024/04/22 08:15:58;;;;;;;0.35;0.35;;;8.70;78.70;;;;;;4805438;29;20039;-76
2024/04/22 08:18:24;;;;;;;0.57;0.40;;;8.70;78.60;;;;;;4803092;29;20085;-76
2024/04/22 08:20:51;;;;;;;0.47;0.35;;;8.80;78.50;;;;;;4809008;29;20398;-74
2024/04/22 08:23:18;;;;;;;0.20;0.20;;;8.90;78.40;;;;;;4810233;29;20510;-75
2024/04/22 08:25:44;;;;;;;0.40;0.40;;;8.90;78.40;;;;;;4793916;29;20050;-74
2024/04/22 08:28:10;;;;;;;0.20;0.20;;;9.00;78.40;;;;;;4807350;29;20050;-73
2024/04/22 08:30:35;;;;;;;0.68;0.40;;;9.00;78.30;;;;;;4810393;29;20050;-74
2024/04/22 08:33:01;;;;;;;0.60;0.38;;;9.00;78.30;;;;;;4778710;29;20054;-74
2024/04/22 08:35:27;;;;;;;0.73;0.40;;;9.10;78.30;;;;;;4810282;29;20095;-74
2024/04/22 08:37:53;;;;;;;0.50;0.50;;;9.10;78.30;;;;;;4809498;29;20035;-73
2024/04/22 08:40:19;;;;;;;0.43;0.30;;;9.10;78.20;;;;;;4808599;29;20062;-74
2024/04/22 08:42:45;;;;;;;0.30;0.30;;;9.10;78.30;;;;;;4808702;29;20517;-74
2024/04/22 08:45:12;;;;;;;0.30;0.30;;;9.20;78.40;;;;;;4810478;29;20063;-74
2024/04/22 08:47:38;;;;;;;0.40;0.35;;;9.20;78.30;;;;;;4808418;29;20068;-74
2024/04/22 08:50:04;;;;;;;0.20;0.20;;;9.20;78.20;;;;;;4809658;29;20031;-74
2024/04/22 08:52:30;;;;;;;0.30;0.30;;;9.30;78.10;;;;;;4810303;29;20123;-74
2024/04/22 08:55:03;;;;;;;0.30;0.28;;;9.40;78.00;;;;;;4809906;29;20145;-74
2024/04/22 08:57:29;;;;;;;0.35;0.32;;;9.40;77.90;;;;;;4808830;29;20410;-75
2024/04/22 08:59:54;;;;;;;0.20;0.20;;;9.50;78.00;;;;;;4814705;29;20043;-76
2024/04/22 09:02:20;;;;;;;0.38;0.38;;;9.50;78.00;;;;;;4796828;29;20050;-75
2024/04/22 09:04:49;;;;;;;0.40;0.40;;;9.60;77.90;;;;;;4808693;29;20035;-73
2024/04/22 09:07:17;;;;;;;0.30;0.30;;;9.70;77.60;;;;;;4809080;29;20092;-73
2024/04/22 09:09:44;;;;;;;0.22;0.22;;;9.80;77.50;;;;;;4810141;29;20051;-74
2024/04/22 09:12:17;;;;;;;0.30;0.30;;;9.80;77.50;;;;;;4809533;29;20152;-74
2024/04/22 09:14:43;;;;;;;0.25;0.25;;;9.90;77.50;;;;;;4809319;29;20513;-74
2024/04/22 09:17:16;;;;;;;0.32;0.32;;;10.00;77.50;;;;;;4809656;29;20172;-74
2024/04/22 09:19:46;;;;;;;0.63;0.30;;;10.10;77.20;;;;;;4809108;29;20482;-75
2024/04/22 09:22:14;;;;;;;0.40;0.40;;;10.20;77.00;;;;;;4809501;29;20513;-74
2024/04/22 09:24:40;;;;;;;0.32;0.32;;;10.30;77.00;;;;;;4808367;29;20112;-76
2024/04/22 09:27:06;;;;;;;0.35;0.25;;;10.30;76.90;;;;;;4808309;29;20046;-75
2024/04/22 09:29:39;;;;;;;0.20;0.20;;;10.40;76.80;;;;;;4811829;29;20055;-76
2024/04/22 09:32:10;;;;;;;0.30;0.30;;;10.50;76.70;;;;;;4791702;29;20047;-75
2024/04/22 09:34:40;;;;;;;1.10;0.30;;;10.60;76.60;;;;;;4806752;29;20051;-73
2024/04/22 09:37:07;;;;;;;0.75;0.30;;;10.70;76.50;;;;;;4806270;29;20483;-76
2024/04/22 09:39:36;;;;;;;0.45;0.35;;;10.70;76.40;;;;;;4805260;29;20100;-76
2024/04/22 09:42:03;;;;;;;0.88;0.30;;;10.90;76.50;;;;;;4806647;29;20100;-73
2024/04/22 09:44:30;;;;;;;0.40;0.30;;;11.00;76.20;;;;;;4805958;29;20039;-74
2024/04/22 09:46:56;;;;;;;0.38;0.30;;;11.00;76.00;;;;;;4805930;29;20483;-74
2024/04/22 09:49:25;;;;;;;0.28;0.20;;;11.10;75.90;;;;;;4805038;29;20054;-74
2024/04/22 09:51:53;;;;;;;0.20;0.20;;;11.00;75.80;;;;;;4805559;29;20035;-75
2024/04/22 09:54:18;;;;;;;0.20;0.20;;;10.90;76.20;;;;;;4784961;30;20059;-75
2024/04/22 09:56:48;;;;;;;0.30;0.30;;;10.80;76.30;;;;;;4787286;30;20525;-76
2024/04/22 09:59:14;;;;;;;0.30;0.30;;;10.70;76.40;;;;;;4787505;30;20549;-75
2024/04/22 10:01:39;;;;;;;0.98;0.30;;;10.60;76.60;;;;;;4786959;30;20052;-75
2024/04/22 10:04:06;;;;;;;0.30;0.30;;;10.40;76.80;;;;;;4785746;30;20070;-73
2024/04/22 10:06:33;;;;;;;0.30;0.30;;;10.30;77.10;;;;;;4786089;30;20534;-75
2024/04/22 10:08:59;;;;;;;0.35;0.35;;;10.20;77.50;;;;;;4786264;30;20054;-74
2024/04/22 10:11:30;;;;;;;0.22;0.22;;;10.10;77.90;;;;;;4786180;30;20047;-75
2024/04/22 10:14:07;;;;;;;0.82;0.30;;;10.20;78.00;;;;;;4770495;30;20059;-75
2024/04/22 10:16:33;;;;;;;0.60;0.50;;;10.30;77.70;;;;;;4786009;30;20040;-74
2024/04/22 10:18:58;;;;;;;0.20;0.20;;;10.40;77.40;;;;;;4785522;30;20040;-74
2024/04/22 10:21:27;;;;;;;0.20;0.20;;;10.50;77.20;;;;;;4770506;30;20123;-75
2024/04/22 10:23:54;;;;;;;0.32;0.32;;;10.50;77.20;;;;;;4785729;30;20169;-74
2024/04/22 10:26:20;;;;;;;0.30;0.30;;;10.50;77.10;;;;;;4789264;29;20199;-74
2024/04/22 10:28:46;;;;;;;0.70;0.28;;;10.60;77.00;;;;;;4805714;29;20125;-74
2024/04/22 10:31:21;;;;;;;0.30;0.30;;;10.80;76.90;;;;;;4805682;29;20237;-75
2024/04/22 10:33:48;;;;;;;0.55;0.47;;;10.80;76.60;;;;;;4804119;29;20065;-74
2024/04/22 10:36:14;;;;;;;0.30;0.30;;;10.70;76.40;;;;;;4805889;29;20508;-74
2024/04/22 10:38:40;;;;;;;0.25;0.20;;;10.90;76.50;;;;;;4807078;29;20031;-75
2024/04/22 10:41:06;;;;;;;0.55;0.40;;;10.90;76.50;;;;;;4807148;29;20402;-76
2024/04/22 10:43:33;;;;;;;0.30;0.30;;;10.90;76.40;;;;;;4805973;29;20058;-76
2024/04/22 10:46:00;;;;;;;0.55;0.50;;;10.80;76.60;;;;;;4810551;29;20078;-75
2024/04/22 10:48:26;;;;;;;0.30;0.30;;;10.90;76.70;;;;;;4806711;29;20046;-75
2024/04/22 10:50:54;;;;;;;0.30;0.30;;;11.00;76.70;;;;;;4804722;29;20456;-75
2024/04/22 10:53:21;;;;;;;0.50;0.30;;;11.00;76.40;;;;;;4805793;29;20142;-75
2024/04/22 10:55:46;;;;;;;0.30;0.30;;;11.10;76.50;;;;;;4775823;29;20043;-76
2024/04/22 10:58:12;;;;;;;0.70;0.50;;;11.00;76.40;;;;;;4809087;29;20575;-75
2024/04/22 11:00:38;;;;;;;0.45;0.40;;;11.00;76.50;;;;;;4807225;29;20095;-75
2024/04/22 11:03:04;;;;;;;0.30;0.30;;;10.90;76.60;;;;;;4803755;29;20070;-75
2024/04/22 11:05:31;;;;;;;0.40;0.40;;;10.80;76.80;;;;;;4804845;29;20490;-76
2024/04/22 11:07:59;;;;;;;0.32;0.32;;;10.80;76.90;;;;;;4805190;29;20043;-76
2024/04/22 11:10:27;;;;;;;0.70;0.25;;;10.90;77.00;;;;;;4804956;29;20111;-74
2024/04/22 11:12:54;;;;;;;0.50;0.50;;;10.80;77.00;;;;;;4803422;29;20065;-75
2024/04/22 11:15:20;;;;;;;0.30;0.30;;;10.80;77.10;;;;;;4804860;29;20046;-75
2024/04/22 11:17:46;;;;;;;0.40;0.40;;;10.60;76.90;;;;;;4803842;29;20043;-75
2024/04/22 11:20:13;;;;;;;0.47;0.38;;;10.70;76.80;;;;;;4805117;29;20524;-75
2024/04/22 11:22:43;;;;;;;0.40;0.40;;;10.70;76.80;;;;;;4803595;29;20046;-75
2024/04/22 11:25:09;;;;;;;0.57;0.47;;;10.70;76.50;;;;;;4804989;29;20095;-74
2024/04/22 11:27:35;;;;;;;0.45;0.40;;;10.70;76.40;;;;;;4805101;29;20047;-74
2024/04/22 11:30:01;;;;;;;0.57;0.57;;;10.70;76.20;;;;;;4803515;29;20416;-73
2024/04/22 11:32:28;;;;;;;0.45;0.40;;;10.70;76.10;;;;;;4801550;29;20120;-73
2024/04/22 11:34:54;;;;;;;0.43;0.43;;;10.60;75.80;;;;;;4804326;29;20079;-74
2024/04/22 11:37:20;;;;;;;0.40;0.40;;;10.60;75.70;;;;;;4804633;29;20081;-74
2024/04/22 11:39:50;;;;;;;0.65;0.40;;;10.70;75.50;;;;;;4804713;29;20058;-74
2024/04/22 11:42:16;;;;;;;0.82;0.40;;;10.70;75.40;;;;;;4773459;29;20042;-75
2024/04/22 11:44:42;;;;;;;0.50;0.50;;;10.70;75.20;;;;;;4803145;29;20490;-75
2024/04/22 11:47:16;;;;;;;0.52;0.32;;;10.60;75.20;;;;;;4804534;29;20141;-75
2024/04/22 11:49:42;;;;;;;0.40;0.40;;;10.50;75.20;;;;;;4803145;29;20038;-74
2024/04/22 11:52:07;;;;;;;0.40;0.40;;;10.50;75.40;;;;;;4804369;29;20383;-74
2024/04/22 11:54:33;;;;;;;0.68;0.50;;;10.60;75.50;;;;;;4800663;29;20059;-74
2024/04/22 11:56:58;;;;;;;0.40;0.40;;;10.70;75.70;;;;;;4799051;29;20047;-72
2024/04/22 11:59:24;;;;;;;0.50;0.40;;;10.80;74.60;;;;;;4804303;29;20184;-73
2024/04/22 12:01:50;;;;;;;1.88;0.50;;;11.00;75.00;;;;;;4787880;29;20043;-73
2024/04/22 12:04:16;;;;;;;0.50;0.47;;;11.00;74.00;;;;;;4802988;29;20148;-72
2024/04/22 12:06:43;;;;;;;0.45;0.45;;;11.10;73.70;;;;;;4804545;29;20498;-73
2024/04/22 12:09:09;;;;;;;0.32;0.32;;;11.20;73.30;;;;;;4802707;29;20047;-72
2024/04/22 12:11:35;;;;;;;0.35;0.35;;;11.30;73.00;;;;;;4802715;29;20042;-73
2024/04/22 12:14:01;;;;;;;0.40;0.35;;;11.30;72.50;;;;;;4803947;29;20514;-74
2024/04/22 12:16:26;;;;;;;0.45;0.45;;;11.20;72.50;;;;;;4803165;29;20127;-73
2024/04/22 12:18:55;;;;;;;0.45;0.45;;;11.10;72.70;;;;;;4787764;29;20105;-73
2024/04/22 12:21:21;;;;;;;0.32;0.30;;;11.30;72.70;;;;;;4803966;29;20027;-73
2024/04/22 12:23:47;;;;;;;0.38;0.38;;;11.20;72.30;;;;;;4804014;29;20061;-74
2024/04/22 12:26:12;;;;;;;0.30;0.30;;;11.30;72.30;;;;;;4787662;29;20130;-73
2024/04/22 12:28:38;;;;;;;0.40;0.40;;;11.30;72.20;;;;;;4803972;29;20091;-75
2024/04/22 12:31:04;;;;;;;0.30;0.30;;;11.40;71.80;;;;;;4802857;29;20390;-73
2024/04/22 12:33:30;;;;;;;1.60;0.50;;;11.40;71.60;;;;;;4802188;29;20396;-73
2024/04/22 12:35:57;;;;;;;0.50;0.40;;;11.40;71.40;;;;;;4803722;29;20073;-74
2024/04/22 12:38:23;;;;;;;0.57;0.43;;;11.50;70.90;;;;;;4787447;29;20525;-73
2024/04/22 12:40:49;;;;;;;0.77;0.50;;;11.60;70.90;;;;;;4803769;29;20039;-73
2024/04/22 12:43:15;;;;;;;0.40;0.30;;;11.60;70.40;;;;;;4803891;29;20062;-74
2024/04/22 12:45:41;;;;;;;0.38;0.30;;;11.50;70.20;;;;;;4802452;29;20042;-75
2024/04/22 12:50:49;;;;;;;;;;;11.20;70.30;;;;;;4804120;29;20058;-73
2024/04/22 12:53:16;;;;;;;0.30;0.30;;;11.30;70.70;;;;;;4802319;29;19975;-72
2024/04/22 12:55:41;;;;;;;0.30;0.30;;;11.30;70.70;;;;;;4787154;29;20513;-73
2024/04/22 12:58:07;;;;;;;0.38;0.38;;;11.30;70.60;;;;;;4787282;29;20133;-73
2024/04/22 13:00:33;;;;;;;0.30;0.28;;;11.30;70.50;;;;;;4787095;29;20073;-73
2024/04/22 13:02:59;;;;;;;0.30;0.30;;;11.30;70.40;;;;;;4803481;29;20179;-73